createdAt,value
2022-08-24T00:00:29.339Z,99900.80
2022-08-24T00:03:14.189Z,99911.79
2022-08-24T00:05:43.659Z,99916.68
2022-08-24T00:08:10.073Z,99921.98
2022-08-24T00:10:36.571Z,99923.20
2022-08-24T00:13:03.643Z,99935.14
2022-08-24T00:15:54.519Z,99944.54
2022-08-24T00:18:57.114Z,99947.39
2022-08-24T00:21:25.199Z,99949.75
2022-08-24T00:23:51.642Z,99952.04
2022-08-24T00:26:29.059Z,99944.74
2022-08-24T00:29:04.178Z,99950.44
2022-08-24T00:31:33.644Z,99948.73
2022-08-24T00:34:00.094Z,99950.70
2022-08-24T00:36:26.624Z,99954.11
2022-08-24T00:38:53.112Z,99957.43
2022-08-24T00:41:19.720Z,99960.17
2022-08-24T00:43:58.852Z,99966.05
2022-08-24T00:46:43.739Z,99965.20
2022-08-24T00:49:27.848Z,99963.35
2022-08-24T00:51:57.863Z,99966.35
2022-08-24T00:54:26.353Z,99976.58
2022-08-24T00:56:55.938Z,99979.84
2022-08-24T00:59:32.670Z,99985.66
2022-08-24T01:02:15.007Z,99989.48
2022-08-24T01:04:48.551Z,99991.72
2022-08-24T01:07:15.367Z,99990.43
2022-08-24T01:09:42.251Z,99989.60
2022-08-24T01:12:09.331Z,99991.59
2022-08-24T01:14:37.253Z,99992.15
2022-08-24T01:17:22.458Z,99994.19
2022-08-24T01:19:50.551Z,99994.83
2022-08-24T01:22:20.297Z,99989.46
2022-08-24T01:24:47.772Z,99986.80
2022-08-24T01:27:17.547Z,99985.20
2022-08-24T01:30:03.958Z,99979.88
2022-08-24T01:32:30.430Z,99982.00
2022-08-24T01:35:03.164Z,99983.98
2022-08-24T01:37:32.348Z,99985.12
2022-08-24T01:40:00.439Z,99983.89
2022-08-24T01:42:29.305Z,99978.86
2022-08-24T01:44:56.802Z,99983.45
2022-08-24T01:47:23.549Z,99987.91
2022-08-24T01:49:50.077Z,99979.70
2022-08-24T01:53:03.822Z,99972.59
2022-08-24T01:55:26.523Z,99965.60
2022-08-24T01:58:10.909Z,99959.10
2022-08-24T02:00:52.016Z,99958.77
2022-08-24T02:03:19.921Z,99953.81
2022-08-24T02:05:51.854Z,99953.05
2022-08-24T02:08:19.938Z,99953.77
2022-08-24T02:10:54.906Z,99950.25
2022-08-24T02:13:23.670Z,99952.73
2022-08-24T02:15:50.126Z,99955.55
2022-08-24T02:18:16.595Z,99951.98
2022-08-24T02:20:44.614Z,99950.25
2022-08-24T02:23:11.071Z,99946.27
2022-08-24T02:25:37.514Z,99941.38
2022-08-24T02:28:04.091Z,99936.65
2022-08-24T02:30:31.353Z,99934.77
2022-08-24T02:32:58.510Z,99934.14
2022-08-24T02:35:25.728Z,99936.50
2022-08-24T02:37:52.358Z,99935.58
2022-08-24T02:40:19.043Z,99938.02
2022-08-24T02:42:45.710Z,99936.32
2022-08-24T02:45:12.127Z,99932.80
2022-08-24T02:47:39.236Z,99925.51
2022-08-24T02:50:07.610Z,99920.85
2022-08-24T02:52:35.659Z,99921.75
2022-08-24T02:55:02.325Z,99928.19
2022-08-24T02:57:29.362Z,99927.52
2022-08-24T02:59:55.909Z,99921.71
2022-08-24T03:02:22.620Z,99918.33
2022-08-24T03:04:49.355Z,99918.38
2022-08-24T03:07:16.323Z,99920.55
2022-08-24T03:09:42.734Z,99924.86
2022-08-24T03:12:09.396Z,99928.91
2022-08-24T03:14:37.281Z,99930.18
2022-08-24T03:17:04.335Z,99933.04
2022-08-24T03:19:30.890Z,99934.25
2022-08-24T03:21:57.306Z,99936.08
2022-08-24T03:24:25.896Z,99935.27
2022-08-24T03:26:52.477Z,99937.05
2022-08-24T03:29:18.938Z,99933.08
2022-08-24T03:31:46.805Z,99928.90
2022-08-24T03:34:13.907Z,99932.52
2022-08-24T03:36:45.716Z,99934.59
2022-08-24T03:39:14.327Z,99939.09
2022-08-24T03:41:40.981Z,99940.79
2022-08-24T03:44:07.916Z,99940.07
2022-08-24T03:46:36.171Z,99945.67
2022-08-24T03:49:04.155Z,99944.90
2022-08-24T03:51:30.715Z,99934.71
2022-08-24T03:53:58.803Z,99924.84
2022-08-24T03:56:28.188Z,99926.10
2022-08-24T03:58:55.432Z,99930.77
2022-08-24T04:01:23.009Z,99938.08
2022-08-24T04:03:50.438Z,99939.87
2022-08-24T04:06:18.129Z,99932.63
2022-08-24T04:08:45.006Z,99930.92
2022-08-24T04:11:14.736Z,99934.52
2022-08-24T04:13:43.515Z,99937.30
2022-08-24T04:16:12.260Z,99939.34
2022-08-24T04:18:40.119Z,99940.10
2022-08-24T04:21:14.189Z,99939.52
2022-08-24T04:23:46.853Z,99943.55
2022-08-24T04:26:15.392Z,99955.02
2022-08-24T04:28:41.942Z,99962.20
2022-08-24T04:31:08.926Z,99964.48
2022-08-24T04:33:41.646Z,99967.65
2022-08-24T04:36:09.376Z,99967.63
2022-08-24T04:38:38.345Z,99973.73
2022-08-24T04:41:30.851Z,99978.69
2022-08-24T04:43:59.765Z,99984.09
2022-08-24T04:46:27.545Z,99989.86
2022-08-24T04:48:55.508Z,99995.31
2022-08-24T04:51:22.210Z,99999.64
2022-08-24T04:53:49.902Z,99999.55
2022-08-24T04:56:20.167Z,100004.12
2022-08-24T04:58:46.959Z,100005.37
2022-08-24T05:01:14.980Z,100007.55
2022-08-24T05:03:44.858Z,100005.77
2022-08-24T05:06:12.741Z,100001.20
2022-08-24T05:08:39.482Z,100006.13
2022-08-24T05:11:08.769Z,100007.96
2022-08-24T05:13:36.030Z,100007.03
2022-08-24T05:16:06.487Z,100008.39
2022-08-24T05:18:33.015Z,100008.79
2022-08-24T05:20:59.733Z,100007.39
2022-08-24T05:23:26.849Z,100013.53
2022-08-24T05:26:02.667Z,100016.36
2022-08-24T05:28:29.837Z,100018.87
2022-08-24T05:30:56.340Z,100022.56
2022-08-24T05:33:22.701Z,100020.77
2022-08-24T05:35:49.718Z,100018.74
2022-08-24T05:38:16.190Z,100016.29
2022-08-24T05:40:42.605Z,100018.45
2022-08-24T05:43:09.999Z,100024.01
2022-08-24T05:45:36.767Z,100026.27
2022-08-24T05:48:03.451Z,100024.91
2022-08-24T05:51:02.592Z,100025.02
2022-08-24T05:53:32.952Z,100033.09
2022-08-24T05:56:07.928Z,100038.82
2022-08-24T05:58:35.442Z,100039.21
2022-08-24T06:01:07.453Z,100039.08
2022-08-24T06:03:34.295Z,100042.96
2022-08-24T06:06:02.835Z,100042.45
2022-08-24T06:08:30.590Z,100046.54
2022-08-24T06:11:00.358Z,100047.20
2022-08-24T06:13:26.891Z,100048.69
2022-08-24T06:16:20.720Z,100047.44
2022-08-24T06:18:49.042Z,100045.88
2022-08-24T06:21:18.093Z,100045.53
2022-08-24T06:23:46.789Z,100046.95
2022-08-24T06:26:32.098Z,100043.69
2022-08-24T06:28:59.867Z,100045.90
2022-08-24T06:31:26.793Z,100048.85
2022-08-24T06:33:55.145Z,100049.73
2022-08-24T06:36:24.441Z,100055.45
2022-08-24T06:38:52.020Z,100054.30
2022-08-24T06:41:20.008Z,100054.92
2022-08-24T06:43:46.771Z,100058.75
2022-08-24T06:46:20.844Z,100061.21
2022-08-24T06:48:50.785Z,100059.45
2022-08-24T06:51:18.076Z,100054.80
2022-08-24T06:53:45.485Z,100058.48
2022-08-24T06:56:12.155Z,100062.77
2022-08-24T06:58:39.498Z,100063.55
2022-08-24T07:01:11.161Z,100061.23
2022-08-24T07:03:38.259Z,100058.34
2022-08-24T07:06:18.859Z,100060.27
2022-08-24T07:08:45.497Z,100062.67
2022-08-24T07:11:14.380Z,100067.43
2022-08-24T07:13:41.852Z,100062.27
2022-08-24T07:16:11.853Z,100058.58
2022-08-24T07:18:41.225Z,100056.48
2022-08-24T07:21:12.076Z,100053.15
2022-08-24T07:23:42.891Z,100056.87
2022-08-24T07:26:20.894Z,100060.55
2022-08-24T07:29:00.096Z,100063.68
2022-08-24T07:31:32.052Z,100067.17
2022-08-24T07:34:16.584Z,100065.97
2022-08-24T07:36:44.860Z,100068.23
2022-08-24T07:39:12.036Z,100070.69
2022-08-24T07:41:56.550Z,100069.77
2022-08-24T07:44:27.221Z,100068.74
2022-08-24T07:46:54.841Z,100070.69
2022-08-24T07:49:36.098Z,100071.46
2022-08-24T07:52:04.547Z,100069.66
2022-08-24T07:54:31.175Z,100070.98
2022-08-24T07:57:03.549Z,100067.73
2022-08-24T07:59:30.199Z,100070.98
2022-08-24T08:01:58.290Z,100072.48
2022-08-24T08:04:25.473Z,100074.53
2022-08-24T08:06:53.885Z,100072.66
2022-08-24T08:09:20.759Z,100075.60
2022-08-24T08:11:49.098Z,100076.98
2022-08-24T08:14:15.652Z,100077.64
2022-08-24T08:16:42.340Z,100075.04
2022-08-24T08:19:10.575Z,100073.69
2022-08-24T08:22:03.184Z,100079.35
2022-08-24T08:24:31.408Z,100079.98
2022-08-24T08:27:02.238Z,100077.42
2022-08-24T08:29:39.992Z,100079.27
2022-08-24T08:32:19.576Z,100076.10
2022-08-24T08:34:46.628Z,100076.11
2022-08-24T08:37:14.565Z,100076.17
2022-08-24T08:39:41.320Z,100078.27
2022-08-24T08:42:22.326Z,100077.41
2022-08-24T08:44:52.461Z,100078.02
2022-08-24T08:47:22.115Z,100076.52
2022-08-24T08:49:49.044Z,100077.10
2022-08-24T08:52:33.092Z,100076.00
2022-08-24T08:55:18.878Z,100070.66
2022-08-24T08:57:45.424Z,100068.23
2022-08-24T09:00:15.958Z,100069.73
2022-08-24T09:02:57.466Z,100074.73
2022-08-24T09:05:44.080Z,100071.65
2022-08-24T09:08:29.499Z,100072.13
2022-08-24T09:10:56.164Z,100073.77
2022-08-24T09:13:27.621Z,100070.73
2022-08-24T09:16:22.771Z,100070.23
2022-08-24T09:18:54.497Z,100078.65
2022-08-24T09:21:39.826Z,100080.20
2022-08-24T09:24:25.584Z,100078.96
2022-08-24T09:26:59.263Z,100082.36
2022-08-24T09:29:42.877Z,100084.46
2022-08-24T09:32:32.267Z,100079.48
2022-08-24T09:35:14.341Z,100077.04
2022-08-24T09:38:00.758Z,100074.56
2022-08-24T09:40:36.276Z,100077.05
2022-08-24T09:43:23.657Z,100081.54
2022-08-24T09:46:05.380Z,100084.09
2022-08-24T09:48:31.878Z,100086.88
2022-08-24T09:51:22.125Z,100082.02
2022-08-24T09:53:54.681Z,100082.23
2022-08-24T09:56:21.071Z,100084.70
2022-08-24T09:59:02.011Z,100087.27
2022-08-24T10:01:34.738Z,100089.45
2022-08-24T10:04:01.384Z,100084.91
2022-08-24T10:06:29.130Z,100084.13
2022-08-24T10:09:14.575Z,100079.66
2022-08-24T10:11:56.688Z,100077.27
2022-08-24T10:14:38.509Z,100072.59
2022-08-24T10:17:18.582Z,100071.33
2022-08-24T10:20:07.315Z,100078.36
2022-08-24T10:22:52.682Z,100079.73
2022-08-24T10:25:31.571Z,100075.60
2022-08-24T10:28:16.899Z,100076.97
2022-08-24T10:30:46.449Z,100077.13
2022-08-24T10:33:22.184Z,100077.64
2022-08-24T10:36:07.475Z,100077.61
2022-08-24T10:39:12.702Z,100077.81
2022-08-24T10:41:54.853Z,100078.02
2022-08-24T10:44:24.452Z,100080.84
2022-08-24T10:46:54.333Z,100080.02
2022-08-24T10:49:31.590Z,100082.28
2022-08-24T10:52:06.612Z,100079.55
2022-08-24T10:54:34.724Z,100077.84
2022-08-24T10:57:09.230Z,100069.13
2022-08-24T10:59:53.743Z,100063.39
2022-08-24T11:02:31.196Z,100058.38
2022-08-24T11:04:59.070Z,100060.33
2022-08-24T11:07:26.913Z,100050.88
2022-08-24T11:09:53.603Z,100048.72
2022-08-24T11:12:28.611Z,100053.02
2022-08-24T11:14:57.376Z,100058.41
2022-08-24T11:17:25.482Z,100063.90
2022-08-24T11:19:52.030Z,100060.35
2022-08-24T11:22:31.499Z,100063.45
2022-08-24T11:25:02.792Z,100060.20
2022-08-24T11:27:51.944Z,100061.25
2022-08-24T11:30:27.643Z,100060.19
2022-08-24T11:33:13.143Z,100055.56
2022-08-24T11:35:40.581Z,100057.83
2022-08-24T11:38:15.351Z,100055.45
2022-08-24T11:40:43.795Z,100055.53
2022-08-24T11:43:16.357Z,100051.64
2022-08-24T11:46:02.174Z,100052.60
2022-08-24T11:48:43.772Z,100051.71
2022-08-24T11:51:34.237Z,100050.09
2022-08-24T11:54:25.822Z,100054.23
2022-08-24T11:56:57.104Z,100056.39
2022-08-24T11:59:24.476Z,100057.27
2022-08-24T12:01:56.138Z,100051.11
2022-08-24T12:04:41.150Z,100045.73
2022-08-24T12:07:10.638Z,100050.70
2022-08-24T12:09:53.797Z,100051.75
2022-08-24T12:12:36.671Z,100049.52
2022-08-24T12:15:28.177Z,100048.16
2022-08-24T12:18:04.674Z,100046.95
2022-08-24T12:20:33.438Z,100048.58
2022-08-24T12:23:03.338Z,100045.98
2022-08-24T12:25:51.491Z,100047.55
2022-08-24T12:28:24.992Z,100042.33
2022-08-24T12:30:53.147Z,100037.86
2022-08-24T12:33:23.895Z,100039.09
2022-08-24T12:35:57.323Z,100040.29
2022-08-24T12:38:53.365Z,100036.11
2022-08-24T12:41:35.444Z,100033.02
2022-08-24T12:44:08.494Z,100033.60
2022-08-24T12:46:35.598Z,100032.59
2022-08-24T12:49:06.738Z,100039.83
2022-08-24T12:51:52.703Z,100039.88
2022-08-24T12:54:36.623Z,100039.03
2022-08-24T12:57:12.549Z,100040.23
2022-08-24T12:59:43.259Z,100037.52
2022-08-24T13:02:18.597Z,100034.73
2022-08-24T13:04:48.178Z,100032.44
2022-08-24T13:07:20.650Z,100037.05
2022-08-24T13:09:49.051Z,100047.33
2022-08-24T13:12:38.688Z,100051.28
2022-08-24T13:15:24.060Z,100049.43
2022-08-24T13:18:02.954Z,100052.84
2022-08-24T13:20:50.018Z,100051.95
2022-08-24T13:23:23.640Z,100050.20
2022-08-24T13:25:55.529Z,100054.11
2022-08-24T13:28:21.912Z,100052.80
2022-08-24T13:30:54.419Z,100054.41
2022-08-24T13:33:30.754Z,100055.88
2022-08-24T13:35:59.446Z,100058.20
2022-08-24T13:38:35.019Z,100056.10
2022-08-24T13:41:07.650Z,100052.85
2022-08-24T13:43:46.162Z,100051.52
2022-08-24T13:46:15.596Z,100045.79
2022-08-24T13:49:00.893Z,100038.38
2022-08-24T13:51:42.157Z,100032.55
2022-08-24T13:54:22.444Z,100036.97
2022-08-24T13:57:07.743Z,100042.60
2022-08-24T14:00:06.985Z,100043.29
2022-08-24T14:02:39.653Z,100045.48
2022-08-24T14:05:28.577Z,100035.79
2022-08-24T14:08:09.127Z,100032.78
2022-08-24T14:11:11.398Z,100041.70
2022-08-24T14:13:47.320Z,100044.27
2022-08-24T14:16:51.045Z,100043.34
2022-08-24T14:19:36.063Z,100039.19
2022-08-24T14:22:13.889Z,100036.75
2022-08-24T14:24:54.521Z,100035.79
2022-08-24T14:27:33.384Z,100033.88
2022-08-24T14:30:18.456Z,100033.16
2022-08-24T14:32:57.714Z,100025.42
2022-08-24T14:35:56.186Z,100022.65
2022-08-24T14:38:28.930Z,100021.17
2022-08-24T14:41:02.499Z,100030.45
2022-08-24T14:43:31.689Z,100026.27
2022-08-24T14:46:04.211Z,100025.66
2022-08-24T14:48:42.922Z,100027.10
2022-08-24T14:51:28.158Z,100025.49
2022-08-24T14:53:54.560Z,100024.66
2022-08-24T14:56:28.575Z,100027.91
2022-08-24T14:59:05.989Z,100032.86
2022-08-24T15:01:32.658Z,100031.30
2022-08-24T15:04:37.862Z,100025.37
2022-08-24T15:07:20.086Z,100024.69
2022-08-24T15:09:46.645Z,100025.88
2022-08-24T15:12:32.164Z,100026.03
2022-08-24T15:15:06.880Z,100025.46
2022-08-24T15:17:59.691Z,100027.73
2022-08-24T15:20:26.106Z,100031.00
2022-08-24T15:23:03.468Z,100034.62
2022-08-24T15:25:33.049Z,100033.04
2022-08-24T15:28:07.221Z,100029.75
2022-08-24T15:30:35.912Z,100029.30
2022-08-24T15:33:16.080Z,100028.94
2022-08-24T15:35:47.292Z,100024.11
2022-08-24T15:38:18.049Z,100019.36
2022-08-24T15:40:46.138Z,100020.50
2022-08-24T15:43:13.262Z,100023.48
2022-08-24T15:45:46.440Z,100025.28
2022-08-24T15:48:15.815Z,100033.05
2022-08-24T15:50:46.835Z,100039.68
2022-08-24T15:53:13.430Z,100041.45
2022-08-24T15:55:41.584Z,100042.86
2022-08-24T15:58:14.086Z,100042.04
2022-08-24T16:00:59.331Z,100038.27
2022-08-24T16:03:44.664Z,100041.51
2022-08-24T16:06:29.641Z,100041.94
2022-08-24T16:09:05.334Z,100034.30
2022-08-24T16:11:31.762Z,100031.26
2022-08-24T16:14:01.362Z,100036.33
2022-08-24T16:16:32.381Z,100040.61
2022-08-24T16:19:02.196Z,100046.60
2022-08-24T16:21:40.656Z,100049.19
2022-08-24T16:24:22.428Z,100055.02
2022-08-24T16:26:48.969Z,100057.20
2022-08-24T16:29:33.890Z,100054.45
2022-08-24T16:32:21.135Z,100054.91
2022-08-24T16:35:07.705Z,100056.75
2022-08-24T16:37:34.486Z,100056.02
2022-08-24T16:40:00.977Z,100056.36
2022-08-24T16:42:29.149Z,100057.03
2022-08-24T16:44:56.231Z,100057.04
2022-08-24T16:47:24.778Z,100052.60
2022-08-24T16:49:51.355Z,100049.90
2022-08-24T16:52:18.359Z,100053.15
2022-08-24T16:54:45.506Z,100058.60
2022-08-24T16:57:13.957Z,100055.35
2022-08-24T16:59:43.290Z,100045.64
2022-08-24T17:02:11.987Z,100049.30
2022-08-24T17:04:39.040Z,100051.24
2022-08-24T17:07:07.440Z,100056.23
2022-08-24T17:09:36.015Z,100056.92
2022-08-24T17:12:02.851Z,100053.93
2022-08-24T17:14:29.321Z,100055.39
2022-08-24T17:16:57.360Z,100052.86
2022-08-24T17:19:26.985Z,100052.45
2022-08-24T17:21:56.164Z,100053.09
2022-08-24T17:24:23.142Z,100054.62
2022-08-24T17:26:52.769Z,100055.48
2022-08-24T17:29:20.168Z,100060.52
2022-08-24T17:31:49.292Z,100057.67
2022-08-24T17:34:15.866Z,100058.67
2022-08-24T17:36:44.288Z,100061.66
2022-08-24T17:39:12.803Z,100064.29
2022-08-24T17:41:39.742Z,100067.24
2022-08-24T17:44:08.590Z,100069.22
2022-08-24T17:46:35.114Z,100070.95
2022-08-24T17:49:01.595Z,100074.88
2022-08-24T17:51:28.140Z,100076.50
2022-08-24T17:53:54.651Z,100076.98
2022-08-24T17:56:21.294Z,100078.39
2022-08-24T17:59:06.174Z,100080.38
2022-08-24T18:01:32.607Z,100082.15
2022-08-24T18:03:59.112Z,100086.85
2022-08-24T18:06:27.031Z,100084.06
2022-08-24T18:08:56.358Z,100085.74
2022-08-24T18:11:26.000Z,100084.00
2022-08-24T18:13:53.916Z,100089.36
2022-08-24T18:16:22.056Z,100090.92
2022-08-24T18:18:50.278Z,100093.13
2022-08-24T18:21:18.553Z,100092.71
2022-08-24T18:23:45.524Z,100097.77
2022-08-24T18:26:14.671Z,100099.83
2022-08-24T18:28:42.334Z,100096.95
2022-08-24T18:31:09.630Z,100102.86
2022-08-24T18:33:36.086Z,100103.98
2022-08-24T18:36:02.727Z,100106.12
2022-08-24T18:38:29.190Z,100106.17
2022-08-24T18:40:55.990Z,100108.89
2022-08-24T18:43:25.896Z,100108.16
2022-08-24T18:45:53.127Z,100108.98
2022-08-24T18:48:21.068Z,100110.80
2022-08-24T18:50:48.822Z,100110.06
2022-08-24T18:53:16.424Z,100115.64
2022-08-24T18:55:45.620Z,100120.21
2022-08-24T18:58:17.061Z,100122.12
2022-08-24T19:00:44.292Z,100124.96
2022-08-24T19:03:14.538Z,100126.77
2022-08-24T19:05:41.010Z,100125.81
2022-08-24T19:08:12.065Z,100125.63
2022-08-24T19:10:39.021Z,100130.10
2022-08-24T19:13:14.714Z,100134.04
2022-08-24T19:15:42.155Z,100132.66
2022-08-24T19:18:10.693Z,100137.25
2022-08-24T19:20:48.825Z,100140.92
2022-08-24T19:23:24.018Z,100140.45
2022-08-24T19:25:51.264Z,100140.27
2022-08-24T19:28:18.270Z,100143.69
2022-08-24T19:30:48.493Z,100145.91
2022-08-24T19:33:19.049Z,100147.16
2022-08-24T19:35:45.453Z,100148.09
2022-08-24T19:38:17.067Z,100151.07
2022-08-24T19:40:47.657Z,100154.77
2022-08-24T19:43:15.969Z,100151.02
2022-08-24T19:46:01.488Z,100149.95
2022-08-24T19:48:32.769Z,100151.24
2022-08-24T19:51:01.560Z,100152.48
2022-08-24T19:53:29.611Z,100150.61
2022-08-24T19:55:56.180Z,100151.38
2022-08-24T19:58:29.170Z,100151.80
2022-08-24T20:00:57.118Z,100152.23
2022-08-24T20:03:24.385Z,100154.73
2022-08-24T20:05:51.179Z,100158.86
2022-08-24T20:08:18.948Z,100160.42
2022-08-24T20:10:47.466Z,100161.00
2022-08-24T20:13:13.925Z,100162.67
2022-08-24T20:15:41.208Z,100166.17
2022-08-24T20:18:07.858Z,100163.80
2022-08-24T20:20:34.478Z,100164.16
2022-08-24T20:23:05.777Z,100168.77
2022-08-24T20:25:35.723Z,100173.05
2022-08-24T20:28:37.411Z,100174.30
2022-08-24T20:31:06.444Z,100177.54
2022-08-24T20:33:33.492Z,100181.34
2022-08-24T20:36:02.651Z,100181.79
2022-08-24T20:38:32.004Z,100183.85
2022-08-24T20:40:59.684Z,100183.64
2022-08-24T20:43:26.784Z,100183.64
2022-08-24T20:45:53.652Z,100186.30
2022-08-24T20:48:24.838Z,100181.39
2022-08-24T20:50:54.864Z,100180.45
2022-08-24T20:53:21.433Z,100180.16
2022-08-24T20:55:48.339Z,100181.19
2022-08-24T20:58:19.317Z,100186.56
2022-08-24T21:00:45.949Z,100190.28
2022-08-24T21:03:15.578Z,100192.20
2022-08-24T21:05:45.354Z,100200.11
2022-08-24T21:08:12.965Z,100199.41
2022-08-24T21:10:39.714Z,100194.33
2022-08-24T21:13:06.383Z,100190.61
2022-08-24T21:15:33.137Z,100193.01
2022-08-24T21:18:00.980Z,100190.16
2022-08-24T21:20:27.659Z,100190.87
2022-08-24T21:22:54.171Z,100194.27
2022-08-24T21:25:20.735Z,100196.44
2022-08-24T21:27:47.617Z,100195.33
2022-08-24T21:30:16.576Z,100192.05
2022-08-24T21:33:01.649Z,100190.80
2022-08-24T21:35:31.242Z,100191.31
2022-08-24T21:37:58.576Z,100190.13
2022-08-24T21:40:38.589Z,100190.02
2022-08-24T21:43:09.328Z,100188.43
2022-08-24T21:45:41.957Z,100183.88
2022-08-24T21:48:08.473Z,100179.83
2022-08-24T21:50:35.191Z,100175.95
2022-08-24T21:53:03.581Z,100176.75
2022-08-24T21:55:30.184Z,100179.66
2022-08-24T21:57:56.803Z,100178.34
2022-08-24T22:00:27.508Z,100179.58
2022-08-24T22:02:54.195Z,100175.85
2022-08-24T22:05:22.901Z,100170.89
2022-08-24T22:07:49.597Z,100170.33
2022-08-24T22:10:29.797Z,100167.29
2022-08-24T22:13:06.779Z,100164.52
2022-08-24T22:15:39.335Z,100160.20
2022-08-24T22:18:14.720Z,100157.49
2022-08-24T22:20:41.314Z,100157.39
2022-08-24T22:23:07.904Z,100156.27
2022-08-24T22:25:40.971Z,100155.48
2022-08-24T22:28:10.924Z,100154.61
2022-08-24T22:30:39.454Z,100158.11
2022-08-24T22:33:06.116Z,100155.63
2022-08-24T22:35:44.769Z,100154.95
2022-08-24T22:38:21.654Z,100158.84
2022-08-24T22:40:54.478Z,100158.52
2022-08-24T22:46:35.621Z,100148.85
2022-08-24T22:49:03.378Z,100145.44
2022-08-24T22:52:12.807Z,100145.52
2022-08-24T22:55:29.536Z,100137.73
2022-08-24T22:58:16.290Z,100128.32
2022-08-24T23:00:43.159Z,100126.48
2022-08-24T23:03:09.937Z,100126.18
2022-08-24T23:05:40.333Z,100126.90
2022-08-24T23:08:06.947Z,100120.01
2022-08-24T23:10:59.151Z,100113.68
2022-08-24T23:14:19.901Z,100109.63
2022-08-24T23:16:52.464Z,100106.41
2022-08-24T23:19:47.944Z,100108.58
2022-08-24T23:22:40.181Z,100099.11
2022-08-24T23:25:13.919Z,100098.86
2022-08-24T23:27:42.361Z,100095.27
2022-08-24T23:30:11.861Z,100096.30
2022-08-24T23:32:39.141Z,100100.25
2022-08-24T23:35:11.386Z,100101.39
2022-08-24T23:37:38.204Z,100098.77
2022-08-24T23:40:05.383Z,100097.73
2022-08-24T23:42:36.550Z,100094.02
2022-08-24T23:45:03.197Z,100091.52
2022-08-24T23:47:35.838Z,100090.52
2022-08-24T23:50:03.989Z,100086.33
2022-08-24T23:52:46.594Z,100083.64
2022-08-24T23:55:37.071Z,100088.11
2022-08-24T23:58:09.254Z,100083.92
